createdAt,value
2019-03-29T04:46:06.874Z,30.05
2019-03-29T04:48:35.419Z,31.57
2019-03-29T04:51:03.856Z,32.05
2019-03-29T04:53:32.284Z,29.12
2019-03-29T04:56:00.720Z,28.98
2019-03-29T04:58:29.152Z,29.07
2019-03-29T05:00:57.592Z,29.23
2019-03-29T05:03:26.036Z,29.42
2019-03-29T05:05:54.533Z,28.23
2019-03-29T05:08:23.008Z,29.20
2019-03-29T05:10:51.448Z,32.10
2019-03-29T05:13:19.929Z,30.10
2019-03-29T05:15:48.387Z,29.40
2019-03-29T05:18:16.816Z,32.15
2019-03-29T05:20:45.256Z,29.75
2019-03-29T05:23:13.688Z,28.55
2019-03-29T05:25:42.127Z,29.80
2019-03-29T05:28:10.558Z,27.55
2019-03-29T05:30:39.004Z,30.27
2019-03-29T05:33:07.508Z,28.40
2019-03-29T05:35:35.956Z,30.27
2019-03-29T05:38:04.380Z,28.35
2019-03-29T05:40:35.223Z,28.98
2019-03-29T05:43:02.980Z,28.45
2019-03-29T05:45:31.408Z,31.23
2019-03-29T05:47:59.851Z,29.72
2019-03-29T05:50:28.276Z,27.07
2019-03-29T05:52:56.717Z,30.25
2019-03-29T05:55:32.590Z,27.42
2019-03-29T05:57:55.368Z,30.02
2019-03-29T06:00:23.802Z,26.68
2019-03-29T06:02:52.273Z,28.12
2019-03-29T06:05:20.712Z,24.27
2019-03-29T06:07:49.242Z,30.72
2019-03-29T06:10:17.803Z,25.08
2019-03-29T06:12:46.316Z,48.25
2019-03-29T06:15:15.020Z,47.43
2019-03-29T06:17:48.837Z,29.77
2019-03-29T06:20:13.772Z,29.32
2019-03-29T06:22:42.209Z,25.72
2019-03-29T06:25:11.116Z,26.45
2019-03-29T06:27:39.798Z,26.10
2019-03-29T06:30:08.707Z,27.95
2019-03-29T06:32:37.287Z,27.22
2019-03-29T06:35:07.478Z,26.55
2019-03-29T06:37:36.948Z,25.57
2019-03-29T06:40:07.614Z,26.23
2019-03-29T06:42:36.121Z,22.95
2019-03-29T06:45:06.416Z,24.20
2019-03-29T06:47:34.938Z,22.77
2019-03-29T06:50:04.849Z,22.62
2019-03-29T06:52:33.337Z,22.35
2019-03-29T06:55:01.815Z,21.80
2019-03-29T06:57:30.256Z,23.70
2019-03-29T06:59:58.693Z,20.62
2019-03-29T07:02:27.150Z,21.80
2019-03-29T07:04:55.618Z,29.15
2019-03-29T07:07:24.073Z,22.80
2019-03-29T07:09:52.536Z,23.87
2019-03-29T07:12:20.994Z,23.75
2019-03-29T07:14:49.457Z,20.40
2019-03-29T07:17:17.915Z,21.60
2019-03-29T07:19:46.366Z,17.32
2019-03-29T07:22:14.816Z,19.00
2019-03-29T07:24:43.374Z,17.67
2019-03-29T07:27:11.891Z,18.90
2019-03-29T07:29:40.387Z,17.30
2019-03-29T07:32:10.434Z,16.90
2019-03-29T07:34:38.892Z,16.90
2019-03-29T07:37:07.340Z,18.67
2019-03-29T07:39:35.799Z,17.53
2019-03-29T07:42:04.316Z,18.43
2019-03-29T07:44:32.756Z,18.20
2019-03-29T07:47:01.204Z,19.37
2019-03-29T07:49:29.641Z,15.97
2019-03-29T07:51:58.098Z,17.30
2019-03-29T07:54:26.560Z,18.17
2019-03-29T07:56:55.016Z,16.07
2019-03-29T07:59:23.591Z,19.33
2019-03-29T08:01:52.033Z,19.00
2019-03-29T08:04:21.803Z,15.23
2019-03-29T08:06:50.658Z,18.83
2019-03-29T08:09:22.565Z,15.97
2019-03-29T08:11:49.346Z,16.40
2019-03-29T08:14:17.890Z,14.70
2019-03-29T08:16:46.385Z,14.03
2019-03-29T08:19:14.823Z,13.73
2019-03-29T08:21:43.301Z,15.37
2019-03-29T08:24:11.725Z,13.03
2019-03-29T08:26:40.162Z,12.63
2019-03-29T08:29:08.691Z,15.70
2019-03-29T08:31:37.132Z,23.27
2019-03-29T08:34:05.652Z,11.40
2019-03-29T08:36:34.165Z,13.10
2019-03-29T08:39:02.748Z,12.37
2019-03-29T08:41:31.208Z,11.40
2019-03-29T08:43:59.720Z,12.90
2019-03-29T08:46:28.176Z,11.93
2019-03-29T08:48:56.621Z,11.07
2019-03-29T08:51:25.056Z,11.30
2019-03-29T08:53:53.560Z,10.77
2019-03-29T08:56:22.021Z,12.23
2019-03-29T08:58:50.492Z,12.40
2019-03-29T09:01:19.869Z,10.60
2019-03-29T09:04:02.729Z,12.50
2019-03-29T09:06:19.589Z,12.23
2019-03-29T09:08:48.040Z,13.33
2019-03-29T09:11:16.465Z,14.20
2019-03-29T09:13:44.912Z,11.20
2019-03-29T09:16:13.369Z,11.43
2019-03-29T09:18:41.812Z,10.83
2019-03-29T09:21:10.240Z,10.60
2019-03-29T09:23:38.691Z,11.60
2019-03-29T09:26:07.129Z,11.30
2019-03-29T09:28:35.569Z,10.23
2019-03-29T09:31:04.251Z,11.00
2019-03-29T09:33:32.695Z,11.53
2019-03-29T09:36:01.129Z,14.63
2019-03-29T09:38:29.569Z,10.07
2019-03-29T09:40:59.237Z,10.30
2019-03-29T09:43:28.130Z,11.27
2019-03-29T09:45:56.632Z,11.93
2019-03-29T09:48:25.097Z,10.63
2019-03-29T09:50:53.589Z,12.63
2019-03-29T09:53:22.410Z,11.70
2019-03-29T09:55:53.405Z,10.93
2019-03-29T09:58:21.000Z,8.97
2019-03-29T10:00:49.494Z,10.57
2019-03-29T10:03:17.933Z,9.40
2019-03-29T10:05:46.433Z,9.67
2019-03-29T10:08:14.881Z,10.20
2019-03-29T10:10:43.305Z,9.50
2019-03-29T10:13:11.767Z,9.47
2019-03-29T10:15:40.190Z,9.50
2019-03-29T10:18:08.713Z,9.60
2019-03-29T10:20:37.140Z,10.43
2019-03-29T10:23:05.616Z,9.17
2019-03-29T10:25:34.096Z,8.30
2019-03-29T10:28:02.564Z,8.60
2019-03-29T10:30:36.341Z,8.53
2019-03-29T10:33:05.320Z,8.10
2019-03-29T10:35:33.792Z,9.00
2019-03-29T10:38:02.294Z,8.33
2019-03-29T10:40:30.722Z,9.00
2019-03-29T10:42:59.219Z,9.43
2019-03-29T10:45:27.711Z,7.90
2019-03-29T10:47:56.196Z,8.13
2019-03-29T10:50:24.685Z,7.80
2019-03-29T10:52:53.117Z,7.00
2019-03-29T10:55:21.550Z,8.73
2019-03-29T10:57:49.971Z,8.50
2019-03-29T11:00:33.031Z,7.63
2019-03-29T11:03:01.652Z,7.83
2019-03-29T11:05:30.156Z,8.00
2019-03-29T11:07:58.593Z,6.97
2019-03-29T11:10:36.326Z,7.10
2019-03-29T11:13:12.443Z,8.07
2019-03-29T11:15:35.576Z,6.20
2019-03-29T11:18:05.854Z,6.77
2019-03-29T11:20:34.282Z,8.07
2019-03-29T11:23:02.792Z,7.23
2019-03-29T11:25:31.217Z,7.77
2019-03-29T11:27:59.775Z,6.40
2019-03-29T11:30:41.463Z,7.50
2019-03-29T11:32:58.340Z,7.27
2019-03-29T11:35:26.776Z,7.97
2019-03-29T11:37:55.199Z,8.57
2019-03-29T11:40:23.855Z,10.33
2019-03-29T11:42:52.376Z,13.70
2019-03-29T11:45:20.817Z,12.97
2019-03-29T11:47:49.253Z,10.60
2019-03-29T11:50:19.127Z,8.87
2019-03-29T11:52:47.563Z,8.77
2019-03-29T11:55:16.017Z,10.13
2019-03-29T11:57:44.438Z,9.83
2019-03-29T12:00:13.415Z,8.43
2019-03-29T12:02:41.844Z,7.90
2019-03-29T12:05:10.556Z,8.27
2019-03-29T12:07:39.156Z,9.40
2019-03-29T12:10:09.005Z,8.97
2019-03-29T12:12:37.607Z,10.30
2019-03-29T12:15:07.879Z,9.03
2019-03-29T12:17:36.469Z,7.87
2019-03-29T12:20:07.151Z,7.60
2019-03-29T12:22:35.651Z,10.50
2019-03-29T12:25:06.324Z,7.70
2019-03-29T12:27:34.759Z,7.87
2019-03-29T12:30:04.381Z,9.20
2019-03-29T12:32:32.838Z,9.57
2019-03-29T12:35:01.348Z,10.20
2019-03-29T12:37:29.794Z,10.60
2019-03-29T12:39:58.232Z,11.10
2019-03-29T12:42:26.660Z,10.03
2019-03-29T12:44:55.117Z,9.23
2019-03-29T12:47:23.545Z,9.90
2019-03-29T12:49:51.987Z,14.10
2019-03-29T12:52:20.429Z,11.90
2019-03-29T12:54:48.877Z,10.60
2019-03-29T12:57:17.330Z,9.93
2019-03-29T12:59:45.855Z,12.07
2019-03-29T13:02:14.302Z,10.70
2019-03-29T13:04:42.824Z,9.63
2019-03-29T13:07:11.359Z,9.43
2019-03-29T13:09:39.998Z,9.10
2019-03-29T13:12:08.977Z,9.07
2019-03-29T13:14:37.835Z,8.50
2019-03-29T13:17:06.562Z,11.80
2019-03-29T13:19:35.116Z,10.07
2019-03-29T13:22:05.387Z,10.77
2019-03-29T13:24:33.869Z,11.90
2019-03-29T13:27:02.372Z,10.50
2019-03-29T13:29:31.037Z,11.10
2019-03-29T13:31:59.600Z,10.87
2019-03-29T13:34:28.136Z,13.77
2019-03-29T13:36:56.586Z,11.60
2019-03-29T13:39:25.048Z,59.13
2019-03-29T13:41:53.571Z,10.57
2019-03-29T13:44:23.947Z,13.30
2019-03-29T13:46:52.277Z,10.73
2019-03-29T13:49:20.721Z,11.77
2019-03-29T13:51:52.221Z,12.70
2019-03-29T13:54:20.730Z,10.83
2019-03-29T13:56:49.256Z,11.43
2019-03-29T13:59:17.693Z,11.17
2019-03-29T14:01:47.641Z,11.63
2019-03-29T14:04:16.081Z,10.50
2019-03-29T14:06:44.678Z,11.03
2019-03-29T14:09:13.204Z,10.80
2019-03-29T14:11:41.657Z,9.20
2019-03-29T14:14:10.103Z,11.57
2019-03-29T14:16:38.632Z,12.03
2019-03-29T14:19:07.078Z,11.10
2019-03-29T14:21:35.533Z,11.93
2019-03-29T14:24:04.105Z,10.80
2019-03-29T14:26:32.549Z,15.03
2019-03-29T14:29:00.994Z,14.43
2019-03-29T14:31:29.442Z,9.83
2019-03-29T14:33:57.932Z,10.83
2019-03-29T14:36:26.412Z,10.70
2019-03-29T14:38:54.860Z,10.07
2019-03-29T14:41:23.300Z,10.13
2019-03-29T14:43:51.736Z,11.40
2019-03-29T14:46:20.168Z,10.53
2019-03-29T14:48:48.862Z,11.27
2019-03-29T14:51:17.373Z,13.53
2019-03-29T14:53:45.809Z,12.20
2019-03-29T14:56:14.259Z,13.43
2019-03-29T14:58:42.684Z,11.57
2019-03-29T15:01:11.140Z,13.10
2019-03-29T15:03:39.565Z,11.93
2019-03-29T15:06:08.082Z,11.13
2019-03-29T15:08:36.514Z,13.90
2019-03-29T15:11:05.047Z,11.50
2019-03-29T15:13:33.562Z,11.80
2019-03-29T15:16:02.024Z,14.20
2019-03-29T15:18:30.443Z,9.20
2019-03-29T15:20:59.831Z,13.43
2019-03-29T15:23:28.331Z,13.13
2019-03-29T15:25:56.797Z,12.43
2019-03-29T15:28:25.295Z,19.90
2019-03-29T15:30:53.736Z,16.93
2019-03-29T15:33:22.175Z,12.13
2019-03-29T15:35:50.606Z,14.00
2019-03-29T15:38:19.045Z,11.63
2019-03-29T15:40:47.482Z,13.40
2019-03-29T15:43:15.929Z,12.17
2019-03-29T15:45:44.356Z,12.50
2019-03-29T15:48:12.808Z,15.20
2019-03-29T15:50:41.312Z,14.40
2019-03-29T15:53:09.762Z,14.17
2019-03-29T15:55:38.240Z,12.80
2019-03-29T15:58:06.714Z,14.67
2019-03-29T16:00:35.151Z,15.43
2019-03-29T16:03:03.590Z,18.80
2019-03-29T16:05:32.048Z,10.07
2019-03-29T16:08:00.497Z,10.40
2019-03-29T16:10:28.942Z,13.13
2019-03-29T16:12:57.464Z,9.47
2019-03-29T16:15:34.863Z,14.93
2019-03-29T16:17:56.050Z,11.43
2019-03-29T16:20:24.477Z,11.93
2019-03-29T16:22:52.928Z,12.53
2019-03-29T16:25:21.364Z,19.03
2019-03-29T16:27:50.083Z,11.70
2019-03-29T16:30:18.715Z,12.87
2019-03-29T16:32:47.152Z,13.50
2019-03-29T16:35:15.578Z,11.63
2019-03-29T16:37:56.533Z,15.07
2019-03-29T16:40:14.714Z,13.43
2019-03-29T16:42:43.152Z,17.53
2019-03-29T16:45:11.758Z,12.47
2019-03-29T16:47:40.186Z,14.00
2019-03-29T16:50:10.057Z,12.13
2019-03-29T16:52:38.497Z,12.67
2019-03-29T16:55:13.571Z,14.13
2019-03-29T16:57:38.108Z,11.30
2019-03-29T17:00:12.208Z,16.00
2019-03-29T17:02:39.412Z,15.30
2019-03-29T17:05:08.185Z,13.47
2019-03-29T17:07:36.645Z,16.73
2019-03-29T17:10:06.879Z,12.13
2019-03-29T17:12:35.313Z,13.60
2019-03-29T17:15:04.511Z,13.87
2019-03-29T17:17:32.948Z,15.23
2019-03-29T17:20:01.411Z,14.83
2019-03-29T17:22:29.933Z,12.87
2019-03-29T17:24:58.449Z,14.00
2019-03-29T17:27:26.913Z,18.00
2019-03-29T17:29:55.373Z,17.23
2019-03-29T17:32:23.893Z,13.27
2019-03-29T17:34:54.656Z,16.83
2019-03-29T17:37:23.261Z,12.80
2019-03-29T17:39:51.900Z,15.53
2019-03-29T17:42:20.410Z,14.03
2019-03-29T17:44:48.866Z,15.57
2019-03-29T17:47:17.293Z,14.10
2019-03-29T17:49:46.097Z,14.87
2019-03-29T17:52:14.568Z,12.83
2019-03-29T17:54:43.019Z,13.80
2019-03-29T17:57:11.463Z,13.00
2019-03-29T17:59:39.912Z,15.73
2019-03-29T18:02:09.703Z,16.60
2019-03-29T18:04:38.364Z,17.20
2019-03-29T18:07:06.801Z,14.30
2019-03-29T18:09:35.257Z,13.83
2019-03-29T18:12:03.701Z,14.83
2019-03-29T18:14:32.143Z,19.30
2019-03-29T18:17:00.601Z,16.90
2019-03-29T18:19:29.146Z,24.80
2019-03-29T18:21:57.630Z,34.53
2019-03-29T18:24:26.184Z,37.33
2019-03-29T18:26:54.730Z,55.90
2019-03-29T18:29:23.204Z,18.20
2019-03-29T18:31:51.714Z,15.17
2019-03-29T18:34:20.250Z,24.60
2019-03-29T18:36:50.448Z,17.10
2019-03-29T18:39:18.934Z,22.77
2019-03-29T18:41:47.477Z,17.70
2019-03-29T18:44:15.958Z,17.03
2019-03-29T18:46:45.157Z,18.77
2019-03-29T18:49:13.745Z,15.33
2019-03-29T18:51:42.192Z,19.47
2019-03-29T18:54:10.659Z,21.43
2019-03-29T18:56:39.107Z,18.33
2019-03-29T18:59:07.560Z,25.90
2019-03-29T19:01:36.082Z,16.30
2019-03-29T19:04:04.630Z,16.03
2019-03-29T19:06:33.165Z,15.83
2019-03-29T19:09:01.698Z,17.07
2019-03-29T19:11:30.166Z,16.67
2019-03-29T19:13:58.629Z,18.63
2019-03-29T19:16:27.083Z,18.83
2019-03-29T19:19:09.132Z,18.37
2019-03-29T19:21:25.857Z,16.93
2019-03-29T19:23:54.390Z,17.97
2019-03-29T19:26:22.954Z,18.43
2019-03-29T19:28:51.491Z,22.90
2019-03-29T19:31:20.432Z,26.50
2019-03-29T19:33:49.162Z,23.07
2019-03-29T19:36:17.723Z,19.23
2019-03-29T19:38:47.514Z,19.20
2019-03-29T19:41:16.714Z,19.32
2019-03-29T19:43:45.205Z,14.17
2019-03-29T19:46:13.701Z,17.40
2019-03-29T19:48:42.313Z,13.40
2019-03-29T19:51:13.471Z,17.13
2019-03-29T19:53:44.373Z,20.03
2019-03-29T19:56:14.935Z,22.50
2019-03-29T19:58:45.589Z,23.45
2019-03-29T20:01:16.540Z,22.17
2019-03-29T20:03:46.810Z,18.10
2019-03-29T20:06:18.629Z,23.80
2019-03-29T20:08:50.386Z,18.82
2019-03-29T20:11:22.135Z,17.17
2019-03-29T20:13:52.536Z,55.03
2019-03-29T20:16:21.289Z,41.33
2019-03-29T20:18:51.554Z,116.15
2019-03-29T20:21:20.152Z,76.50
2019-03-29T20:23:48.733Z,39.13
2019-03-29T20:26:17.604Z,19.30
2019-03-29T20:28:46.270Z,25.85
2019-03-29T20:31:14.865Z,19.57
2019-03-29T20:33:43.413Z,18.07
2019-03-29T20:36:12.188Z,28.87
2019-03-29T20:38:40.779Z,19.60
2019-03-29T20:41:09.758Z,17.27
2019-03-29T20:43:38.442Z,23.12
2019-03-29T20:46:07.061Z,18.62
2019-03-29T20:48:35.583Z,18.42
2019-03-29T20:51:06.018Z,19.73
2019-03-29T20:53:37.417Z,23.15
2019-03-29T20:56:11.289Z,21.02
2019-03-29T20:58:39.618Z,19.20
2019-03-29T21:01:08.186Z,21.57
2019-03-29T21:03:37.635Z,18.02
2019-03-29T21:06:06.324Z,17.42
2019-03-29T21:08:35.118Z,19.50
2019-03-29T21:11:04.122Z,17.27
2019-03-29T21:13:34.654Z,19.87
2019-03-29T21:16:05.319Z,21.35
2019-03-29T21:18:34.105Z,21.40
2019-03-29T21:21:02.704Z,21.05
2019-03-29T21:23:31.420Z,21.68
2019-03-29T21:26:04.048Z,17.15
2019-03-29T21:28:35.157Z,21.15
2019-03-29T21:31:04.194Z,21.52
2019-03-29T21:33:33.827Z,20.70
2019-03-29T21:36:05.451Z,20.08
2019-03-29T21:38:34.476Z,18.15
2019-03-29T21:41:02.987Z,21.73
2019-03-29T21:43:31.892Z,22.62
2019-03-29T21:46:00.575Z,20.55
2019-03-29T21:48:29.421Z,28.55
2019-03-29T21:51:00.031Z,70.80
2019-03-29T21:53:30.599Z,35.08
2019-03-29T21:56:00.783Z,28.35
2019-03-29T21:58:29.943Z,25.85
2019-03-29T22:00:58.891Z,23.15
2019-03-29T22:03:27.577Z,18.67
2019-03-29T22:05:56.086Z,25.35
2019-03-29T22:08:25.504Z,23.47
2019-03-29T22:10:55.177Z,22.35
2019-03-29T22:13:27.283Z,23.77
2019-03-29T22:15:55.991Z,30.30
2019-03-29T22:18:37.283Z,20.37
2019-03-29T22:20:54.716Z,24.50
2019-03-29T22:23:23.158Z,19.52
2019-03-29T22:25:52.044Z,24.10
2019-03-29T22:28:20.484Z,23.75
2019-03-29T22:30:48.918Z,25.52
2019-03-29T22:33:17.356Z,20.17
2019-03-29T22:35:45.797Z,19.90
2019-03-29T22:38:14.246Z,18.40
2019-03-29T22:40:42.680Z,20.97
2019-03-29T22:43:11.128Z,19.87
2019-03-29T22:45:39.590Z,22.13
2019-03-29T22:48:08.111Z,18.85
2019-03-29T22:50:36.560Z,20.37
2019-03-29T22:53:04.991Z,20.17
2019-03-29T22:55:33.433Z,19.05
2019-03-29T22:58:01.864Z,18.23
2019-03-29T23:00:43.061Z,18.57
2019-03-29T23:03:11.679Z,22.70
2019-03-29T23:05:40.104Z,19.55
2019-03-29T23:08:08.568Z,21.12
2019-03-29T23:10:37.085Z,22.42
2019-03-29T23:13:05.610Z,22.30
2019-03-29T23:15:34.068Z,21.40
2019-03-29T23:18:02.517Z,22.42
2019-03-29T23:20:30.967Z,21.30
2019-03-29T23:22:59.453Z,30.05
2019-03-29T23:25:27.884Z,20.90
2019-03-29T23:27:56.343Z,24.43
2019-03-29T23:30:24.848Z,51.18
2019-03-29T23:32:53.293Z,37.10
2019-03-29T23:35:21.721Z,22.35
2019-03-29T23:37:50.162Z,61.90
2019-03-29T23:40:18.599Z,27.60
2019-03-29T23:42:47.210Z,27.58
2019-03-29T23:45:15.650Z,25.17
2019-03-29T23:47:44.087Z,29.45
2019-03-29T23:50:12.990Z,20.75
2019-03-29T23:52:41.436Z,27.10
2019-03-29T23:55:10.048Z,25.30
2019-03-29T23:57:38.556Z,25.02
